sensor_id;sensor_type;location;lat;lon;timestamp;P1;P2;P0
30342;PMS5003;17145;49.902;8.680;2022-07-23T00:02:16;4;4;
30342;PMS5003;17145;49.902;8.680;2022-07-23T00:04:44;3;3;
30342;PMS5003;17145;49.902;8.680;2022-07-23T00:07:12;3;3;
30342;PMS5003;17145;49.902;8.680;2022-07-23T00:09:39;3;3;
30342;PMS5003;17145;49.902;8.680;2022-07-23T00:12:07;4;3;
30342;PMS5003;17145;49.902;8.680;2022-07-23T00:14:34;4;3;
30342;PMS5003;17145;49.902;8.680;2022-07-23T00:17:02;4;3;
30342;PMS5003;17145;49.902;8.680;2022-07-23T00:19:30;4;3;
30342;PMS5003;17145;49.902;8.680;2022-07-23T00:21:57;5;4;
30342;PMS5003;17145;49.902;8.680;2022-07-23T00:24:25;5;4;
30342;PMS5003;17145;49.902;8.680;2022-07-23T00:26:53;4;4;
30342;PMS5003;17145;49.902;8.680;2022-07-23T00:29:25;4;4;
30342;PMS5003;17145;49.902;8.680;2022-07-23T00:31:53;4;4;
30342;PMS5003;17145;49.902;8.680;2022-07-23T00:34:20;3;3;
30342;PMS5003;17145;49.902;8.680;2022-07-23T00:36:48;3;3;
30342;PMS5003;17145;49.902;8.680;2022-07-23T00:39:16;3;3;
30342;PMS5003;17145;49.902;8.680;2022-07-23T00:41:43;3;3;
30342;PMS5003;17145;49.902;8.680;2022-07-23T00:44:15;3;3;
30342;PMS5003;17145;49.902;8.680;2022-07-23T00:46:45;4;4;
30342;PMS5003;17145;49.902;8.680;2022-07-23T00:49:14;4;4;
30342;PMS5003;17145;49.902;8.680;2022-07-23T00:51:41;3;3;
30342;PMS5003;17145;49.902;8.680;2022-07-23T00:54:09;3;3;
30342;PMS5003;17145;49.902;8.680;2022-07-23T00:56:37;3;3;
30342;PMS5003;17145;49.902;8.680;2022-07-23T00:59:05;3;3;
30342;PMS5003;17145;49.902;8.680;2022-07-23T01:01:34;3;3;
30342;PMS5003;17145;49.902;8.680;2022-07-23T01:04:01;3;3;
30342;PMS5003;17145;49.902;8.680;2022-07-23T01:06:29;2;2;
30342;PMS5003;17145;49.902;8.680;2022-07-23T01:09:03;2;2;
30342;PMS5003;17145;49.902;8.680;2022-07-23T01:11:33;2;2;
30342;PMS5003;17145;49.902;8.680;2022-07-23T01:16:36;3;3;
30342;PMS5003;17145;49.902;8.680;2022-07-23T01:19:03;2;2;
30342;PMS5003;17145;49.902;8.680;2022-07-23T01:21:31;2;2;
30342;PMS5003;17145;49.902;8.680;2022-07-23T01:24:01;2;2;
30342;PMS5003;17145;49.902;8.680;2022-07-23T01:26:28;2;2;
30342;PMS5003;17145;49.902;8.680;2022-07-23T01:28:56;2;2;
30342;PMS5003;17145;49.902;8.680;2022-07-23T01:31:24;2;2;
30342;PMS5003;17145;49.902;8.680;2022-07-23T01:33:51;2;2;
30342;PMS5003;17145;49.902;8.680;2022-07-23T01:36:19;3;3;
30342;PMS5003;17145;49.902;8.680;2022-07-23T01:38:47;3;3;
30342;PMS5003;17145;49.902;8.680;2022-07-23T01:41:15;3;3;
30342;PMS5003;17145;49.902;8.680;2022-07-23T01:43:43;3;3;
30342;PMS5003;17145;49.902;8.680;2022-07-23T01:46:11;4;4;
30342;PMS5003;17145;49.902;8.680;2022-07-23T01:48:39;3;3;
30342;PMS5003;17145;49.902;8.680;2022-07-23T01:51:07;2;2;
30342;PMS5003;17145;49.902;8.680;2022-07-23T01:53:34;3;3;
30342;PMS5003;17145;49.902;8.680;2022-07-23T01:56:02;4;4;
30342;PMS5003;17145;49.902;8.680;2022-07-23T01:58:30;4;4;
30342;PMS5003;17145;49.902;8.680;2022-07-23T02:00:58;3;3;
30342;PMS5003;17145;49.902;8.680;2022-07-23T02:03:26;3;3;
30342;PMS5003;17145;49.902;8.680;2022-07-23T02:05:53;3;3;
30342;PMS5003;17145;49.902;8.680;2022-07-23T02:08:21;3;3;
30342;PMS5003;17145;49.902;8.680;2022-07-23T02:10:48;3;3;
30342;PMS5003;17145;49.902;8.680;2022-07-23T02:13:16;3;3;
30342;PMS5003;17145;49.902;8.680;2022-07-23T02:15:44;3;3;
30342;PMS5003;17145;49.902;8.680;2022-07-23T02:18:12;3;3;
30342;PMS5003;17145;49.902;8.680;2022-07-23T02:20:39;3;3;
30342;PMS5003;17145;49.902;8.680;2022-07-23T02:23:07;3;3;
30342;PMS5003;17145;49.902;8.680;2022-07-23T02:25:35;3;3;
30342;PMS5003;17145;49.902;8.680;2022-07-23T02:28:03;3;3;
30342;PMS5003;17145;49.902;8.680;2022-07-23T02:30:31;3;3;
30342;PMS5003;17145;49.902;8.680;2022-07-23T02:32:58;3;3;
30342;PMS5003;17145;49.902;8.680;2022-07-23T02:35:26;3;3;
30342;PMS5003;17145;49.902;8.680;2022-07-23T02:37:54;3;3;
30342;PMS5003;17145;49.902;8.680;2022-07-23T02:40:21;3;3;
30342;PMS5003;17145;49.902;8.680;2022-07-23T02:42:49;3;3;
30342;PMS5003;17145;49.902;8.680;2022-07-23T02:45:16;3;3;
30342;PMS5003;17145;49.902;8.680;2022-07-23T02:47:44;3;3;
30342;PMS5003;17145;49.902;8.680;2022-07-23T02:50:12;3;3;
30342;PMS5003;17145;49.902;8.680;2022-07-23T02:52:39;3;3;
30342;PMS5003;17145;49.902;8.680;2022-07-23T02:55:07;3;3;
30342;PMS5003;17145;49.902;8.680;2022-07-23T02:57:35;3;3;
30342;PMS5003;17145;49.902;8.680;2022-07-23T03:00:03;3;3;
30342;PMS5003;17145;49.902;8.680;2022-07-23T03:02:33;3;3;
30342;PMS5003;17145;49.902;8.680;2022-07-23T03:05:01;3;3;
30342;PMS5003;17145;49.902;8.680;2022-07-23T03:07:29;3;3;
30342;PMS5003;17145;49.902;8.680;2022-07-23T03:09:57;3;3;
30342;PMS5003;17145;49.902;8.680;2022-07-23T03:12:24;3;3;
30342;PMS5003;17145;49.902;8.680;2022-07-23T03:14:52;3;3;
30342;PMS5003;17145;49.902;8.680;2022-07-23T03:17:20;3;3;
30342;PMS5003;17145;49.902;8.680;2022-07-23T03:19:47;3;3;
30342;PMS5003;17145;49.902;8.680;2022-07-23T03:22:15;3;3;
30342;PMS5003;17145;49.902;8.680;2022-07-23T03:24:43;3;3;
30342;PMS5003;17145;49.902;8.680;2022-07-23T03:27:10;3;3;
30342;PMS5003;17145;49.902;8.680;2022-07-23T03:29:38;3;3;
30342;PMS5003;17145;49.902;8.680;2022-07-23T03:32:06;3;3;
30342;PMS5003;17145;49.902;8.680;2022-07-23T03:34:34;3;3;
30342;PMS5003;17145;49.902;8.680;2022-07-23T03:37:01;3;3;
30342;PMS5003;17145;49.902;8.680;2022-07-23T03:39:29;3;3;
30342;PMS5003;17145;49.902;8.680;2022-07-23T03:41:56;3;3;
30342;PMS5003;17145;49.902;8.680;2022-07-23T03:44:24;3;3;
30342;PMS5003;17145;49.902;8.680;2022-07-23T03:46:52;4;4;
30342;PMS5003;17145;49.902;8.680;2022-07-23T03:49:19;4;4;
30342;PMS5003;17145;49.902;8.680;2022-07-23T03:51:47;4;4;
30342;PMS5003;17145;49.902;8.680;2022-07-23T03:54:15;4;4;
30342;PMS5003;17145;49.902;8.680;2022-07-23T03:56:42;4;4;
30342;PMS5003;17145;49.902;8.680;2022-07-23T03:59:10;4;4;
30342;PMS5003;17145;49.902;8.680;2022-07-23T04:01:37;4;4;
30342;PMS5003;17145;49.902;8.680;2022-07-23T04:04:05;4;4;
30342;PMS5003;17145;49.902;8.680;2022-07-23T04:06:32;4;4;
30342;PMS5003;17145;49.902;8.680;2022-07-23T04:09:00;4;4;
30342;PMS5003;17145;49.902;8.680;2022-07-23T04:11:28;5;4;
30342;PMS5003;17145;49.902;8.680;2022-07-23T04:13:56;5;4;
30342;PMS5003;17145;49.902;8.680;2022-07-23T04:16:23;5;4;
30342;PMS5003;17145;49.902;8.680;2022-07-23T04:18:51;5;4;
30342;PMS5003;17145;49.902;8.680;2022-07-23T04:21:19;5;4;
30342;PMS5003;17145;49.902;8.680;2022-07-23T04:23:46;5;4;
30342;PMS5003;17145;49.902;8.680;2022-07-23T04:26:14;5;4;
30342;PMS5003;17145;49.902;8.680;2022-07-23T04:28:42;5;4;
30342;PMS5003;17145;49.902;8.680;2022-07-23T04:31:10;5;4;
30342;PMS5003;17145;49.902;8.680;2022-07-23T04:33:37;5;4;
30342;PMS5003;17145;49.902;8.680;2022-07-23T04:36:05;4;4;
30342;PMS5003;17145;49.902;8.680;2022-07-23T04:38:33;4;4;
30342;PMS5003;17145;49.902;8.680;2022-07-23T04:41:01;5;4;
30342;PMS5003;17145;49.902;8.680;2022-07-23T04:43:28;5;4;
30342;PMS5003;17145;49.902;8.680;2022-07-23T04:45:56;5;4;
30342;PMS5003;17145;49.902;8.680;2022-07-23T04:48:23;5;4;
30342;PMS5003;17145;49.902;8.680;2022-07-23T04:50:52;4;3;
30342;PMS5003;17145;49.902;8.680;2022-07-23T04:53:20;4;3;
30342;PMS5003;17145;49.902;8.680;2022-07-23T04:55:48;4;4;
30342;PMS5003;17145;49.902;8.680;2022-07-23T04:58:15;4;4;
30342;PMS5003;17145;49.902;8.680;2022-07-23T05:00:43;3;3;
30342;PMS5003;17145;49.902;8.680;2022-07-23T05:03:10;3;3;
30342;PMS5003;17145;49.902;8.680;2022-07-23T05:05:38;4;4;
30342;PMS5003;17145;49.902;8.680;2022-07-23T05:08:05;4;4;
30342;PMS5003;17145;49.902;8.680;2022-07-23T05:10:33;3;3;
30342;PMS5003;17145;49.902;8.680;2022-07-23T05:13:01;3;3;
30342;PMS5003;17145;49.902;8.680;2022-07-23T05:15:29;3;3;
30342;PMS5003;17145;49.902;8.680;2022-07-23T05:17:57;3;3;
30342;PMS5003;17145;49.902;8.680;2022-07-23T05:20:24;3;3;
30342;PMS5003;17145;49.902;8.680;2022-07-23T05:22:52;3;3;
30342;PMS5003;17145;49.902;8.680;2022-07-23T05:25:20;3;3;
30342;PMS5003;17145;49.902;8.680;2022-07-23T05:27:47;3;3;
30342;PMS5003;17145;49.902;8.680;2022-07-23T05:30:15;3;3;
30342;PMS5003;17145;49.902;8.680;2022-07-23T05:32:43;3;3;
30342;PMS5003;17145;49.902;8.680;2022-07-23T05:35:10;3;3;
30342;PMS5003;17145;49.902;8.680;2022-07-23T05:37:38;3;3;
30342;PMS5003;17145;49.902;8.680;2022-07-23T05:40:07;3;3;
30342;PMS5003;17145;49.902;8.680;2022-07-23T05:42:36;3;3;
30342;PMS5003;17145;49.902;8.680;2022-07-23T05:45:05;3;3;
30342;PMS5003;17145;49.902;8.680;2022-07-23T05:47:39;3;3;
30342;PMS5003;17145;49.902;8.680;2022-07-23T05:50:07;3;3;
30342;PMS5003;17145;49.902;8.680;2022-07-23T05:52:36;3;3;
30342;PMS5003;17145;49.902;8.680;2022-07-23T05:55:03;3;3;
30342;PMS5003;17145;49.902;8.680;2022-07-23T05:57:32;3;3;
30342;PMS5003;17145;49.902;8.680;2022-07-23T05:59:59;3;3;
30342;PMS5003;17145;49.902;8.680;2022-07-23T06:02:27;3;3;
30342;PMS5003;17145;49.902;8.680;2022-07-23T06:04:55;3;3;
30342;PMS5003;17145;49.902;8.680;2022-07-23T06:07:22;3;3;
30342;PMS5003;17145;49.902;8.680;2022-07-23T06:09:50;3;3;
30342;PMS5003;17145;49.902;8.680;2022-07-23T06:12:18;3;3;
30342;PMS5003;17145;49.902;8.680;2022-07-23T06:14:45;4;3;
30342;PMS5003;17145;49.902;8.680;2022-07-23T06:17:13;4;3;
30342;PMS5003;17145;49.902;8.680;2022-07-23T06:19:40;4;3;
30342;PMS5003;17145;49.902;8.680;2022-07-23T06:22:08;4;3;
30342;PMS5003;17145;49.902;8.680;2022-07-23T06:24:36;4;4;
30342;PMS5003;17145;49.902;8.680;2022-07-23T06:27:04;4;4;
30342;PMS5003;17145;49.902;8.680;2022-07-23T06:29:31;4;4;
30342;PMS5003;17145;49.902;8.680;2022-07-23T06:31:59;4;4;
30342;PMS5003;17145;49.902;8.680;2022-07-23T06:34:27;4;4;
30342;PMS5003;17145;49.902;8.680;2022-07-23T06:36:54;4;4;
30342;PMS5003;17145;49.902;8.680;2022-07-23T06:39:22;4;4;
30342;PMS5003;17145;49.902;8.680;2022-07-23T06:41:49;4;4;
30342;PMS5003;17145;49.902;8.680;2022-07-23T06:44:17;4;3;
30342;PMS5003;17145;49.902;8.680;2022-07-23T06:46:45;4;3;
30342;PMS5003;17145;49.902;8.680;2022-07-23T06:49:13;4;4;
30342;PMS5003;17145;49.902;8.680;2022-07-23T06:51:40;4;4;
30342;PMS5003;17145;49.902;8.680;2022-07-23T06:54:08;4;4;
30342;PMS5003;17145;49.902;8.680;2022-07-23T06:56:37;4;4;
30342;PMS5003;17145;49.902;8.680;2022-07-23T06:59:07;5;4;
30342;PMS5003;17145;49.902;8.680;2022-07-23T07:01:34;5;4;
30342;PMS5003;17145;49.902;8.680;2022-07-23T07:04:02;4;4;
30342;PMS5003;17145;49.902;8.680;2022-07-23T07:06:30;4;4;
30342;PMS5003;17145;49.902;8.680;2022-07-23T07:08:59;4;4;
30342;PMS5003;17145;49.902;8.680;2022-07-23T07:11:29;4;4;
30342;PMS5003;17145;49.902;8.680;2022-07-23T07:14:03;3;3;
30342;PMS5003;17145;49.902;8.680;2022-07-23T07:16:30;3;3;
30342;PMS5003;17145;49.902;8.680;2022-07-23T07:18:58;3;3;
30342;PMS5003;17145;49.902;8.680;2022-07-23T07:21:26;3;3;
30342;PMS5003;17145;49.902;8.680;2022-07-23T07:23:53;3;3;
30342;PMS5003;17145;49.902;8.680;2022-07-23T07:26:21;3;3;
30342;PMS5003;17145;49.902;8.680;2022-07-23T07:28:50;3;3;
30342;PMS5003;17145;49.902;8.680;2022-07-23T07:31:20;3;3;
30342;PMS5003;17145;49.902;8.680;2022-07-23T07:33:48;3;3;
30342;PMS5003;17145;49.902;8.680;2022-07-23T07:36:17;3;3;
30342;PMS5003;17145;49.902;8.680;2022-07-23T07:38:45;3;3;
30342;PMS5003;17145;49.902;8.680;2022-07-23T07:41:12;3;3;
30342;PMS5003;17145;49.902;8.680;2022-07-23T07:43:40;3;3;
30342;PMS5003;17145;49.902;8.680;2022-07-23T07:46:07;3;3;
30342;PMS5003;17145;49.902;8.680;2022-07-23T07:48:37;3;3;
30342;PMS5003;17145;49.902;8.680;2022-07-23T07:51:06;3;3;
30342;PMS5003;17145;49.902;8.680;2022-07-23T07:53:34;2;2;
30342;PMS5003;17145;49.902;8.680;2022-07-23T07:56:02;2;2;
30342;PMS5003;17145;49.902;8.680;2022-07-23T07:58:30;3;3;
30342;PMS5003;17145;49.902;8.680;2022-07-23T08:00:58;3;3;
30342;PMS5003;17145;49.902;8.680;2022-07-23T08:03:26;4;4;
30342;PMS5003;17145;49.902;8.680;2022-07-23T08:05:54;4;4;
30342;PMS5003;17145;49.902;8.680;2022-07-23T08:08:21;4;4;
30342;PMS5003;17145;49.902;8.680;2022-07-23T08:10:50;3;3;
30342;PMS5003;17145;49.902;8.680;2022-07-23T08:13:17;3;3;
30342;PMS5003;17145;49.902;8.680;2022-07-23T08:15:45;4;4;
30342;PMS5003;17145;49.902;8.680;2022-07-23T08:18:13;4;4;
30342;PMS5003;17145;49.902;8.680;2022-07-23T08:20:41;4;4;
30342;PMS5003;17145;49.902;8.680;2022-07-23T08:23:08;4;4;
30342;PMS5003;17145;49.902;8.680;2022-07-23T08:25:37;4;4;
30342;PMS5003;17145;49.902;8.680;2022-07-23T08:28:08;4;4;
30342;PMS5003;17145;49.902;8.680;2022-07-23T08:30:37;4;4;
30342;PMS5003;17145;49.902;8.680;2022-07-23T08:33:06;4;4;
30342;PMS5003;17145;49.902;8.680;2022-07-23T08:35:35;4;4;
30342;PMS5003;17145;49.902;8.680;2022-07-23T08:38:04;4;4;
30342;PMS5003;17145;49.902;8.680;2022-07-23T08:40:34;4;4;
30342;PMS5003;17145;49.902;8.680;2022-07-23T08:43:03;4;4;
30342;PMS5003;17145;49.902;8.680;2022-07-23T08:48:03;3;3;
30342;PMS5003;17145;49.902;8.680;2022-07-23T08:50:34;4;4;
30342;PMS5003;17145;49.902;8.680;2022-07-23T08:53:02;3;3;
30342;PMS5003;17145;49.902;8.680;2022-07-23T08:55:33;2;2;
30342;PMS5003;17145;49.902;8.680;2022-07-23T08:58:01;2;2;
30342;PMS5003;17145;49.902;8.680;2022-07-23T09:00:29;3;3;
30342;PMS5003;17145;49.902;8.680;2022-07-23T09:02:57;3;3;
30342;PMS5003;17145;49.902;8.680;2022-07-23T09:05:25;3;3;
30342;PMS5003;17145;49.902;8.680;2022-07-23T09:15:56;3;3;
30342;PMS5003;17145;49.902;8.680;2022-07-23T09:18:32;3;3;
30342;PMS5003;17145;49.902;8.680;2022-07-23T09:21:07;3;3;
30342;PMS5003;17145;49.902;8.680;2022-07-23T09:23:37;3;3;
30342;PMS5003;17145;49.902;8.680;2022-07-23T09:28:51;3;3;
30342;PMS5003;17145;49.902;8.680;2022-07-23T09:31:21;3;3;
30342;PMS5003;17145;49.902;8.680;2022-07-23T09:33:50;3;3;
30342;PMS5003;17145;49.902;8.680;2022-07-23T09:36:28;3;3;
30342;PMS5003;17145;49.902;8.680;2022-07-23T09:38:58;3;3;
30342;PMS5003;17145;49.902;8.680;2022-07-23T09:41:27;3;3;
30342;PMS5003;17145;49.902;8.680;2022-07-23T09:44:06;3;3;
30342;PMS5003;17145;49.902;8.680;2022-07-23T09:46:36;3;3;
30342;PMS5003;17145;49.902;8.680;2022-07-23T09:49:10;2;2;
30342;PMS5003;17145;49.902;8.680;2022-07-23T09:51:46;2;2;
30342;PMS5003;17145;49.902;8.680;2022-07-23T09:54:22;3;3;
30342;PMS5003;17145;49.902;8.680;2022-07-23T09:56:52;3;3;
30342;PMS5003;17145;49.902;8.680;2022-07-23T09:59:22;2;2;
30342;PMS5003;17145;49.902;8.680;2022-07-23T10:01:52;2;2;
30342;PMS5003;17145;49.902;8.680;2022-07-23T10:04:22;2;2;
30342;PMS5003;17145;49.902;8.680;2022-07-23T10:06:51;3;3;
30342;PMS5003;17145;49.902;8.680;2022-07-23T10:09:22;3;3;
30342;PMS5003;17145;49.902;8.680;2022-07-23T10:11:52;3;3;
30342;PMS5003;17145;49.902;8.680;2022-07-23T10:14:23;3;3;
30342;PMS5003;17145;49.902;8.680;2022-07-23T10:16:52;2;2;
30342;PMS5003;17145;49.902;8.680;2022-07-23T10:19:20;2;2;
30342;PMS5003;17145;49.902;8.680;2022-07-23T10:21:50;2;2;
30342;PMS5003;17145;49.902;8.680;2022-07-23T10:24:25;2;2;
30342;PMS5003;17145;49.902;8.680;2022-07-23T10:27:04;2;2;
30342;PMS5003;17145;49.902;8.680;2022-07-23T10:29:42;4;4;
30342;PMS5003;17145;49.902;8.680;2022-07-23T10:32:17;4;4;
30342;PMS5003;17145;49.902;8.680;2022-07-23T10:34:55;4;4;
30342;PMS5003;17145;49.902;8.680;2022-07-23T10:37:32;4;4;
30342;PMS5003;17145;49.902;8.680;2022-07-23T10:40:09;4;4;
30342;PMS5003;17145;49.902;8.680;2022-07-23T10:42:39;4;4;
30342;PMS5003;17145;49.902;8.680;2022-07-23T10:47:50;4;4;
30342;PMS5003;17145;49.902;8.680;2022-07-23T10:50:20;4;4;
30342;PMS5003;17145;49.902;8.680;2022-07-23T10:55:40;4;4;
30342;PMS5003;17145;49.902;8.680;2022-07-23T10:58:10;4;4;
30342;PMS5003;17145;49.902;8.680;2022-07-23T11:00:43;4;4;
30342;PMS5003;17145;49.902;8.680;2022-07-23T11:05:55;4;4;
30342;PMS5003;17145;49.902;8.680;2022-07-23T11:08:23;4;4;
30342;PMS5003;17145;49.902;8.680;2022-07-23T11:10:52;4;4;
30342;PMS5003;17145;49.902;8.680;2022-07-23T11:13:27;4;4;
30342;PMS5003;17145;49.902;8.680;2022-07-23T11:16:04;4;4;
30342;PMS5003;17145;49.902;8.680;2022-07-23T11:24:03;4;4;
30342;PMS5003;17145;49.902;8.680;2022-07-23T11:26:44;4;4;
30342;PMS5003;17145;49.902;8.680;2022-07-23T11:32:04;4;4;
30342;PMS5003;17145;49.902;8.680;2022-07-23T11:34:35;6;6;
30342;PMS5003;17145;49.902;8.680;2022-07-23T11:37:06;6;6;
30342;PMS5003;17145;49.902;8.680;2022-07-23T11:39:39;7;5;
30342;PMS5003;17145;49.902;8.680;2022-07-23T11:42:16;7;5;
30342;PMS5003;17145;49.902;8.680;2022-07-23T11:47:21;10;6;
30342;PMS5003;17145;49.902;8.680;2022-07-23T11:49:52;10;5;
30342;PMS5003;17145;49.902;8.680;2022-07-23T11:52:21;9;4;
30342;PMS5003;17145;49.902;8.680;2022-07-23T11:54:50;10;4;
30342;PMS5003;17145;49.902;8.680;2022-07-23T11:57:19;10;4;
30342;PMS5003;17145;49.902;8.680;2022-07-23T11:59:51;9;4;
30342;PMS5003;17145;49.902;8.680;2022-07-23T12:02:21;9;4;
30342;PMS5003;17145;49.902;8.680;2022-07-23T12:04:50;9;4;
30342;PMS5003;17145;49.902;8.680;2022-07-23T12:07:24;8;3;
30342;PMS5003;17145;49.902;8.680;2022-07-23T12:09:53;7;3;
30342;PMS5003;17145;49.902;8.680;2022-07-23T12:12:23;7;3;
30342;PMS5003;17145;49.902;8.680;2022-07-23T12:14:51;6;2;
30342;PMS5003;17145;49.902;8.680;2022-07-23T12:17:22;6;2;
30342;PMS5003;17145;49.902;8.680;2022-07-23T12:19:55;6;3;
30342;PMS5003;17145;49.902;8.680;2022-07-23T12:22:25;6;3;
30342;PMS5003;17145;49.902;8.680;2022-07-23T12:24:59;5;3;
30342;PMS5003;17145;49.902;8.680;2022-07-23T12:27:28;5;3;
30342;PMS5003;17145;49.902;8.680;2022-07-23T12:29:56;5;3;
30342;PMS5003;17145;49.902;8.680;2022-07-23T12:32:25;5;3;
30342;PMS5003;17145;49.902;8.680;2022-07-23T12:37:30;4;3;
30342;PMS5003;17145;49.902;8.680;2022-07-23T12:42:42;3;3;
30342;PMS5003;17145;49.902;8.680;2022-07-23T12:45:10;3;3;
30342;PMS5003;17145;49.902;8.680;2022-07-23T12:53:03;3;3;
30342;PMS5003;17145;49.902;8.680;2022-07-23T12:55:31;3;3;
30342;PMS5003;17145;49.902;8.680;2022-07-23T12:58:04;3;3;
30342;PMS5003;17145;49.902;8.680;2022-07-23T13:03:21;3;3;
30342;PMS5003;17145;49.902;8.680;2022-07-23T13:05:51;3;3;
30342;PMS5003;17145;49.902;8.680;2022-07-23T13:08:21;3;3;
30342;PMS5003;17145;49.902;8.680;2022-07-23T13:10:50;3;3;
30342;PMS5003;17145;49.902;8.680;2022-07-23T13:13:19;3;3;
30342;PMS5003;17145;49.902;8.680;2022-07-23T13:15:48;3;3;
30342;PMS5003;17145;49.902;8.680;2022-07-23T13:18:16;3;3;
30342;PMS5003;17145;49.902;8.680;2022-07-23T13:20:45;3;3;
30342;PMS5003;17145;49.902;8.680;2022-07-23T13:23:14;2;2;
30342;PMS5003;17145;49.902;8.680;2022-07-23T13:25:42;3;3;
30342;PMS5003;17145;49.902;8.680;2022-07-23T13:28:10;4;4;
30342;PMS5003;17145;49.902;8.680;2022-07-23T13:30:38;4;4;
30342;PMS5003;17145;49.902;8.680;2022-07-23T13:33:06;3;3;
30342;PMS5003;17145;49.902;8.680;2022-07-23T13:35:34;3;3;
30342;PMS5003;17145;49.902;8.680;2022-07-23T13:38:02;3;3;
30342;PMS5003;17145;49.902;8.680;2022-07-23T13:40:32;3;3;
30342;PMS5003;17145;49.902;8.680;2022-07-23T13:43:00;3;3;
30342;PMS5003;17145;49.902;8.680;2022-07-23T13:45:27;3;3;
30342;PMS5003;17145;49.902;8.680;2022-07-23T13:47:55;3;3;
30342;PMS5003;17145;49.902;8.680;2022-07-23T13:50:23;5;5;
30342;PMS5003;17145;49.902;8.680;2022-07-23T13:52:52;5;5;
30342;PMS5003;17145;49.902;8.680;2022-07-23T13:55:20;5;5;
30342;PMS5003;17145;49.902;8.680;2022-07-23T13:57:48;5;5;
30342;PMS5003;17145;49.902;8.680;2022-07-23T14:00:15;5;5;
30342;PMS5003;17145;49.902;8.680;2022-07-23T14:02:43;5;5;
30342;PMS5003;17145;49.902;8.680;2022-07-23T14:05:11;5;5;
30342;PMS5003;17145;49.902;8.680;2022-07-23T14:07:39;5;5;
30342;PMS5003;17145;49.902;8.680;2022-07-23T14:10:07;5;5;
30342;PMS5003;17145;49.902;8.680;2022-07-23T14:12:35;5;5;
30342;PMS5003;17145;49.902;8.680;2022-07-23T14:15:04;4;4;
30342;PMS5003;17145;49.902;8.680;2022-07-23T14:17:33;4;4;
30342;PMS5003;17145;49.902;8.680;2022-07-23T14:20:01;4;4;
30342;PMS5003;17145;49.902;8.680;2022-07-23T14:22:29;4;4;
30342;PMS5003;17145;49.902;8.680;2022-07-23T14:24:57;4;4;
30342;PMS5003;17145;49.902;8.680;2022-07-23T14:27:25;4;4;
30342;PMS5003;17145;49.902;8.680;2022-07-23T14:29:53;4;4;
30342;PMS5003;17145;49.902;8.680;2022-07-23T14:32:22;4;4;
30342;PMS5003;17145;49.902;8.680;2022-07-23T14:34:50;3;3;
30342;PMS5003;17145;49.902;8.680;2022-07-23T14:37:18;3;3;
30342;PMS5003;17145;49.902;8.680;2022-07-23T14:39:46;3;3;
30342;PMS5003;17145;49.902;8.680;2022-07-23T14:42:14;4;4;
30342;PMS5003;17145;49.902;8.680;2022-07-23T14:44:42;4;4;
30342;PMS5003;17145;49.902;8.680;2022-07-23T14:47:09;4;4;
30342;PMS5003;17145;49.902;8.680;2022-07-23T14:49:37;4;4;
30342;PMS5003;17145;49.902;8.680;2022-07-23T14:52:05;4;4;
30342;PMS5003;17145;49.902;8.680;2022-07-23T14:54:33;2;2;
30342;PMS5003;17145;49.902;8.680;2022-07-23T14:57:01;2;2;
30342;PMS5003;17145;49.902;8.680;2022-07-23T14:59:30;3;3;
30342;PMS5003;17145;49.902;8.680;2022-07-23T15:01:58;3;3;
30342;PMS5003;17145;49.902;8.680;2022-07-23T15:04:26;3;3;
30342;PMS5003;17145;49.902;8.680;2022-07-23T15:06:54;4;4;
30342;PMS5003;17145;49.902;8.680;2022-07-23T15:09:21;4;4;
30342;PMS5003;17145;49.902;8.680;2022-07-23T15:11:49;3;3;
30342;PMS5003;17145;49.902;8.680;2022-07-23T15:14:17;3;3;
30342;PMS5003;17145;49.902;8.680;2022-07-23T15:16:44;3;3;
30342;PMS5003;17145;49.902;8.680;2022-07-23T15:19:12;3;3;
30342;PMS5003;17145;49.902;8.680;2022-07-23T15:21:40;4;4;
30342;PMS5003;17145;49.902;8.680;2022-07-23T15:24:07;4;4;
30342;PMS5003;17145;49.902;8.680;2022-07-23T15:26:35;4;4;
30342;PMS5003;17145;49.902;8.680;2022-07-23T15:29:03;4;4;
30342;PMS5003;17145;49.902;8.680;2022-07-23T15:31:31;4;4;
30342;PMS5003;17145;49.902;8.680;2022-07-23T15:33:59;4;4;
30342;PMS5003;17145;49.902;8.680;2022-07-23T15:36:27;4;4;
30342;PMS5003;17145;49.902;8.680;2022-07-23T15:38:55;4;4;
30342;PMS5003;17145;49.902;8.680;2022-07-23T15:41:22;4;4;
30342;PMS5003;17145;49.902;8.680;2022-07-23T15:43:50;4;4;
30342;PMS5003;17145;49.902;8.680;2022-07-23T15:46:18;5;5;
30342;PMS5003;17145;49.902;8.680;2022-07-23T15:48:46;5;5;
30342;PMS5003;17145;49.902;8.680;2022-07-23T15:51:13;5;5;
30342;PMS5003;17145;49.902;8.680;2022-07-23T15:53:41;5;5;
30342;PMS5003;17145;49.902;8.680;2022-07-23T15:56:09;4;4;
30342;PMS5003;17145;49.902;8.680;2022-07-23T15:58:37;4;4;
30342;PMS5003;17145;49.902;8.680;2022-07-23T16:01:05;4;4;
30342;PMS5003;17145;49.902;8.680;2022-07-23T16:03:33;4;4;
30342;PMS5003;17145;49.902;8.680;2022-07-23T16:06:02;4;4;
30342;PMS5003;17145;49.902;8.680;2022-07-23T16:08:32;4;4;
30342;PMS5003;17145;49.902;8.680;2022-07-23T16:11:00;4;4;
30342;PMS5003;17145;49.902;8.680;2022-07-23T16:13:28;4;4;
30342;PMS5003;17145;49.902;8.680;2022-07-23T16:15:56;4;4;
30342;PMS5003;17145;49.902;8.680;2022-07-23T16:18:23;4;4;
30342;PMS5003;17145;49.902;8.680;2022-07-23T16:20:51;4;4;
30342;PMS5003;17145;49.902;8.680;2022-07-23T16:23:19;4;4;
30342;PMS5003;17145;49.902;8.680;2022-07-23T16:25:47;4;4;
30342;PMS5003;17145;49.902;8.680;2022-07-23T16:28:15;4;4;
30342;PMS5003;17145;49.902;8.680;2022-07-23T16:30:43;3;3;
30342;PMS5003;17145;49.902;8.680;2022-07-23T16:33:10;3;3;
30342;PMS5003;17145;49.902;8.680;2022-07-23T16:35:38;3;3;
30342;PMS5003;17145;49.902;8.680;2022-07-23T16:38:06;3;3;
30342;PMS5003;17145;49.902;8.680;2022-07-23T16:40:33;3;3;
30342;PMS5003;17145;49.902;8.680;2022-07-23T16:43:01;3;3;
30342;PMS5003;17145;49.902;8.680;2022-07-23T16:45:29;3;3;
30342;PMS5003;17145;49.902;8.680;2022-07-23T16:47:57;3;3;
30342;PMS5003;17145;49.902;8.680;2022-07-23T16:50:25;3;3;
30342;PMS5003;17145;49.902;8.680;2022-07-23T16:52:52;3;3;
30342;PMS5003;17145;49.902;8.680;2022-07-23T16:55:20;3;3;
30342;PMS5003;17145;49.902;8.680;2022-07-23T16:57:49;3;3;
30342;PMS5003;17145;49.902;8.680;2022-07-23T17:00:16;3;3;
30342;PMS5003;17145;49.902;8.680;2022-07-23T17:02:44;3;3;
30342;PMS5003;17145;49.902;8.680;2022-07-23T17:05:11;3;3;
30342;PMS5003;17145;49.902;8.680;2022-07-23T17:07:39;3;3;
30342;PMS5003;17145;49.902;8.680;2022-07-23T17:10:07;4;4;
30342;PMS5003;17145;49.902;8.680;2022-07-23T17:12:36;4;4;
30342;PMS5003;17145;49.902;8.680;2022-07-23T17:15:04;4;4;
30342;PMS5003;17145;49.902;8.680;2022-07-23T17:17:35;4;4;
30342;PMS5003;17145;49.902;8.680;2022-07-23T17:20:03;3;3;
30342;PMS5003;17145;49.902;8.680;2022-07-23T17:22:32;3;3;
30342;PMS5003;17145;49.902;8.680;2022-07-23T17:25:00;3;3;
30342;PMS5003;17145;49.902;8.680;2022-07-23T17:27:28;3;3;
30342;PMS5003;17145;49.902;8.680;2022-07-23T17:29:56;3;3;
30342;PMS5003;17145;49.902;8.680;2022-07-23T17:32:23;3;3;
30342;PMS5003;17145;49.902;8.680;2022-07-23T17:34:51;3;3;
30342;PMS5003;17145;49.902;8.680;2022-07-23T17:37:19;3;3;
30342;PMS5003;17145;49.902;8.680;2022-07-23T17:39:47;4;4;
30342;PMS5003;17145;49.902;8.680;2022-07-23T17:42:14;4;4;
30342;PMS5003;17145;49.902;8.680;2022-07-23T17:44:42;4;4;
30342;PMS5003;17145;49.902;8.680;2022-07-23T17:47:09;4;4;
30342;PMS5003;17145;49.902;8.680;2022-07-23T17:49:38;4;4;